Connexion

Marche13Km

Marche Nordique FORES TRAIL 13 du 07/07/18 (Réelle 13,8)
Rang Dossard Nom Prénom Temps Cat Rang Cat Ecart Ecart Cat Club Vitesse Km/h Temps au Km
1 949 MERLIER ALAIN 01:43:27 V1M 1 00:00:00 00:00:00 AC OUTREAU 8,004 07:30
2 928 GILLIERS Dominique 01:45:34 V3M 1 00:02:07 00:00:00 ELAN 59 7,843 07:39
3 919 CARRÉ Sébastien 01:45:35 V1M 2 00:02:08 00:02:08 ELAN 59 7,842 07:39
4 939 LELEU Jean marc 01:46:04 V2M 1 00:02:37 00:00:00 SO CALAIS 7,806 07:41
5 901 CAUX Fabien 01:47:33 SEM 1 00:04:06 00:00:00 AC OUTREAU 7,699 07:48
6 922 REMBAUVILLÉ ANNYCK 01:49:10 V2F 1 00:05:43 00:00:00 ELAN 59 7,585 07:55
7 935 SCHEIDLER Renaud 01:49:54 V1M 3 00:06:27 00:06:27 AC OUTREAU 7,534 07:58
8 921 RIVENET Christine 01:50:11 V2F 2 00:06:44 00:01:01 ELAN 59 7,515 07:59
9 904 COULON Yannick 01:50:54 V1M 4 00:07:27 00:07:27 - 7,466 08:02
10 924 DOBBEL Eric 01:50:58 V2M 2 00:07:31 00:04:54 ELAN 59 7,462 08:02
11 943 BOURSAULT stephane 01:51:06 V2M 3 00:07:39 00:05:02 AC OUTREAU 7,453 08:03
12 918 THUILLIER Christian 01:51:51 V3M 2 00:08:24 00:06:17 ELAN 59 7,403 08:06
13 926 DOREKENS Lysiane 01:53:08 V2F 3 00:09:41 00:03:58 ELAN 59 7,319 08:12
14 927 MONTHUIT Michèle 01:53:09 V2F 4 00:09:42 00:03:59 ELAN 59 7,318 08:12
15 910 BOULIN Jean 02:00:15 V4M 1 00:16:48 00:00:00 Indépendant isbergues guarbecque 6,886 08:43
16 903 COULON Sandrine 02:12:23 V1F 1 00:28:56 00:00:00 - 6,255 09:36
17 913 CHOMBART Valérie 02:14:33 V1F 2 00:31:06 00:02:10 AC OUTREAU 6,154 09:45
18 944 DEFIENNES Claude 02:14:36 V3M 3 00:31:09 00:29:02 AC OUTREAU 6,152 09:45
19 934 KONIECZNY Delphine 02:15:03 V1F 3 00:31:36 00:02:40 Élan 59 gravelines 6,131 09:47
20 954 HALTER DUROCHER FARAH 02:15:05 V1M 5 00:31:38 00:31:38 6,130 09:47
21 940 HERBAUX Laure 02:15:08 SEF 1 00:31:41 00:00:00 - 6,127 09:48
22 909 LAMARRE Alison 02:15:20 SEF 2 00:31:53 00:00:12 - 6,118 09:48
23 953 POTTIEZ Annick 02:15:20 V3F 1 00:31:53 00:00:00 - 6,118 09:48
24 905 BATTISTA Rudolph 02:15:25 V3M 4 00:31:58 00:29:51 AS MARCK 6,114 09:49
25 925 RIVENET Victor 02:16:01 V3M 5 00:32:34 00:30:27 ELAN 59 6,087 09:51
26 933 ZAWADZKI Elisabeth 02:16:59 V1F 4 00:33:32 00:04:36 - 6,045 09:56
27 955 ELLART YVES 02:18:10 V3M 6 00:34:43 00:32:36 5,993 10:01
28 908 WATIER Isabelle 02:19:41 V2F 5 00:36:14 00:30:31 - 5,928 10:07
29 907 DESATIS Laurence 02:19:42 V1F 5 00:36:15 00:07:19 - 5,927 10:07
30 950 RAULT martine 02:20:23 V2F 6 00:36:56 00:31:13 AC OUTREAU 5,898 10:10
31 947 DUMONT SOPHIE 02:20:23 V1F 6 00:36:56 00:08:00 AC OUTREAU 5,898 10:10
32 948 MERLIER NATHALIE 02:20:23 V1F 7 00:36:56 00:08:00 AC OUTREAU 5,898 10:10
33 902 LECOUFFE Catherine 02:20:24 V3F 2 00:36:57 00:05:04 SO CALAIS 5,897 10:10
34 911 DEWAELE Aline 02:23:49 SEF 3 00:40:22 00:08:41 - 5,757 10:25
35 942 BAHEU Caroline 02:28:49 V3F 3 00:45:22 00:13:29 AC OUTREAU 5,564 10:47
36 906 MAROUSE Sylvie 02:29:06 V2F 7 00:45:39 00:39:56 - 5,553 10:48
37 956 HAU FABIENNE 02:29:06 V2F 8 00:45:39 00:39:56 LEFFRINCKOUCKE 5,553 10:48
38 957 PIERQUIN SEVERINE 02:29:39 V1F 8 00:46:12 00:17:16 5,533 10:51
39 938 SANTOS Charlotte 02:29:48 SEF 4 00:46:21 00:14:40 - 5,527 10:51
40 945 DELECOUR christophe 02:33:27 V2M 4 00:50:00 00:47:23 AC OUTREAU 5,396 11:07
41 946 DELECOUR carole 02:33:27 V2F 9 00:50:00 00:44:17 AC OUTREAU 5,396 11:07
42 916 GARBEZ Michel 02:33:34 V4M 2 00:50:07 00:33:19 Athlé santé loisirs lens agglo 5,392 11:08
43 914 VASSEUR Catherine 02:36:18 V2F 10 00:52:51 00:47:08 AC OUTREAU 5,298 11:20
44 941 BAHEU Serge 02:36:18 V3M 7 00:52:51 00:50:44 AC OUTREAU 5,298 11:20
45 937 FASQUEL Léa 02:39:24 CAF 1 00:55:57 00:00:00 - 5,194 11:33
46 932 SAILLY Blandine 02:39:24 V2F 11 00:55:57 00:50:14 - 5,194 11:33
47 923 CARRÉ Véronique 02:49:53 V2F 12 01:06:26 01:00:43 ELAN 59 4,874 12:19
48 917 WACH JOELE 02:59:29 V4F 1 01:16:02 00:00:00 Athlé santé loisirs lens agglo 4,613 13:00
49 958 LEMAN CATHY 03:16:51 SEF 5 01:33:24 01:01:43 4,206 14:16
50 930 BOUTOILLE Veronique 03:37:04 V2F 13 01:53:37 01:47:54 - 3,814 15:44
Juillet 2018
Lun Mar Mer Jeu Ven Sam Dim
1
2
3
4
5
6
7
8
9
10
11
12
13
14
15
16
17
18
19
20
21
22
23
24
25
26
27
29
30
31